メインページ
METAR-TAF:

METAR-TAF

空港 :

ナコーンラーチャシーマー空港

Nakhon Ratchasima, タイ

緯度: 14-56-58N, 経度: 102-18-45E, 海抜: 233m

現時点の気象観測

当レポートは1時間24分前の12:00(UTC)に作成
無風
気温 29°C
湿度 79%
気圧 1007 hPa
視程10km以上
高度3000ftの千切れ雲あり

METAR: VTUQ 201200Z 00000KT 9999 BKN030 29/25 Q1007 NOSIG

時間: 20:24 (13:24 UTC)

予報

当レポートは2時間24分前の11:00(UTC)に作成
予報は20日の 12時(UTC)から 21日の 12時(UTC)まで有効
西の風 5kt
視程: 9000m
高度2500ftの雲は散在している
21日の 06時(UTC)から 21日の 12時(UTC)まで一時的に
高度1800ftの雲はほとんどない, 積乱雲.
高度2500ftの千切れ雲あり
激しい雷雨, 小雨,

TAF: VTUQ 201100Z 2012/2112 26005KT 9000 SCT025 TEMPO 2106/2112 -TSRA FEW018CB BKN025

4,000以上の空港の気象観測と天気予報(METAR報とTAF報)

利用可能な観測所は地図上に黄色い丸と赤い丸で示す。

丸の上にカーソルを重ねると観測所名を参照できる。

次にクリックすると気象観測と天気予報を参照できる。

マップの切り替え:黒色「×」印の緑ボタンをクリックして拡大、「-」印の緑ボタンをクリックして縮小、緑色の三角印をクリックして隣りの地図に切り替え


METAR-TAF: